Time;durP1;ratioP1;P1;durP2;ratioP2;P2;SDS_P1;SDS_P2;PMS_P1;PMS_P2;Temp;Humidity;BMP_temperature;BMP_pressure;BME280_temperature;BME280_humidity;BME280_pressure;Samples;Min_cycle;Max_cycle;Signal;HPM_P1;HPM_P2
2021/08/04 00:01:23;;;;;;;1.93;1.83;;;;;;;14.31;100.00;97789.50;5094196;28;20286;-70
2021/08/04 00:03:51;;;;;;;2.13;2.03;;;;;;;14.24;100.00;97781.44;5091289;27;20729;-70
2021/08/04 00:06:34;;;;;;;1.43;1.40;;;;;;;14.28;100.00;97785.34;5092853;27;20209;-71
2021/08/04 00:09:02;;;;;;;2.70;1.90;;;;;;;14.22;100.00;97788.00;5097327;28;20198;-73
2021/08/04 00:11:30;;;;;;;2.10;2.00;;;;;;;14.13;100.00;97781.97;5100174;28;20209;-71
2021/08/04 00:13:58;;;;;;;2.50;2.30;;;;;;;14.24;100.00;97791.28;5098936;28;20211;-72
2021/08/04 00:16:27;;;;;;;2.30;2.20;;;;;;;14.17;100.00;97792.03;5095590;28;20292;-72
2021/08/04 00:18:55;;;;;;;2.03;1.93;;;;;;;14.13;100.00;97795.28;5099180;27;20795;-72
2021/08/04 00:21:23;;;;;;;2.20;2.00;;;;;;;14.13;100.00;97797.94;5095787;28;20440;-72
2021/08/04 00:23:51;;;;;;;2.40;2.30;;;;;;;14.08;100.00;97803.03;5100481;28;20216;-72
2021/08/04 00:26:19;;;;;;;2.00;1.90;;;;;;;14.12;100.00;97798.97;5098288;28;20677;-72
2021/08/04 00:28:47;;;;;;;2.70;2.50;;;;;;;14.11;100.00;97797.31;5100926;28;20302;-72
2021/08/04 00:31:15;;;;;;;2.10;2.00;;;;;;;14.14;100.00;97791.59;5100592;28;20201;-71
2021/08/04 00:33:44;;;;;;;2.13;2.03;;;;;;;14.15;100.00;97794.06;5098588;28;20242;-72
2021/08/04 00:36:12;;;;;;;2.17;2.07;;;;;;;14.14;100.00;97797.75;5099433;28;20713;-72
2021/08/04 00:38:40;;;;;;;2.20;2.00;;;;;;;14.14;100.00;97796.94;5097680;28;20226;-72
2021/08/04 00:41:08;;;;;;;2.10;2.00;;;;;;;14.17;100.00;97792.03;5101250;28;20228;-72
2021/08/04 00:43:36;;;;;;;2.20;2.10;;;;;;;14.18;100.00;97796.34;5097494;28;20206;-72
2021/08/04 00:46:04;;;;;;;2.33;2.20;;;;;;;14.16;100.00;97798.38;5097083;28;20224;-73
2021/08/04 00:48:32;;;;;;;2.50;2.30;;;;;;;14.25;100.00;97795.59;5098576;28;20233;-72
2021/08/04 00:51:02;;;;;;;2.70;2.30;;;;;;;14.23;100.00;97795.78;5098801;28;20293;-72
2021/08/04 00:53:30;;;;;;;2.70;2.60;;;;;;;14.20;100.00;97793.50;5099695;28;20297;-72
2021/08/04 00:55:59;;;;;;;2.60;2.40;;;;;;;14.23;100.00;97797.63;5097381;28;20588;-72
2021/08/04 00:58:31;;;;;;;2.70;2.60;;;;;;;14.25;100.00;97792.94;5100959;28;20229;-72
2021/08/04 01:01:03;;;;;;;2.10;1.90;;;;;;;14.33;100.00;97792.78;5100271;28;20689;-72
2021/08/04 01:03:37;;;;;;;2.83;2.20;;;;;;;14.39;100.00;97789.34;5101072;28;20259;-72
2021/08/04 01:06:12;;;;;;;2.47;2.27;;;;;;;14.33;100.00;97796.25;5098612;28;20206;-72
2021/08/04 01:08:44;;;;;;;2.50;2.40;;;;;;;14.35;100.00;97793.41;5098121;28;20228;-73
2021/08/04 01:11:15;;;;;;;2.57;2.40;;;;;;;14.33;100.00;97798.94;5099243;28;20239;-72
2021/08/04 01:13:48;;;;;;;2.13;2.03;;;;;;;14.36;100.00;97811.06;5101688;27;20204;-72
2021/08/04 01:16:20;;;;;;;2.40;2.20;;;;;;;14.36;100.00;97811.06;5103639;28;20243;-72
2021/08/04 01:18:54;;;;;;;2.47;2.37;;;;;;;14.37;100.00;97806.53;5102639;28;20231;-72
2021/08/04 01:21:28;;;;;;;3.13;2.60;;;;;;;14.34;100.00;97802.44;5102111;28;20205;-71
2021/08/04 01:24:06;;;;;;;2.53;2.33;;;;;;;14.45;100.00;97798.41;5097810;28;20563;-72
2021/08/04 01:26:38;;;;;;;2.37;2.27;;;;;;;14.44;100.00;97805.56;5103611;28;20212;-72
2021/08/04 01:29:08;;;;;;;2.40;2.30;;;;;;;14.43;100.00;97805.78;5101497;28;20673;-72
2021/08/04 01:31:37;;;;;;;2.53;2.43;;;;;;;14.48;100.00;97803.38;5102857;28;20217;-73
2021/08/04 01:34:05;;;;;;;2.43;2.33;;;;;;;14.50;100.00;97803.16;5103700;28;20237;-72
2021/08/04 01:36:33;;;;;;;2.10;2.00;;;;;;;14.43;100.00;97801.25;5103389;28;20205;-72
2021/08/04 01:39:03;;;;;;;2.30;2.20;;;;;;;14.43;100.00;97803.94;5103026;28;20735;-72
2021/08/04 01:41:34;;;;;;;2.40;2.27;;;;;;;14.43;100.00;97803.94;5103058;28;20201;-72
2021/08/04 01:44:05;;;;;;;1.93;1.83;;;;;;;14.39;100.00;97799.16;5103294;28;20201;-72
2021/08/04 01:46:33;;;;;;;2.33;2.13;;;;;;;14.39;100.00;97799.16;5102520;28;20355;-71
2021/08/04 01:49:02;;;;;;;2.50;2.40;;;;;;;14.32;100.00;97794.63;5102771;27;20243;-73
2021/08/04 01:51:31;;;;;;;3.37;2.33;;;;;;;14.29;100.00;97789.66;5102748;28;20217;-71
2021/08/04 01:53:59;;;;;;;2.10;2.00;;;;;;;14.39;100.00;97797.34;5102637;28;20212;-72
2021/08/04 01:56:27;;;;;;;2.40;2.30;;;;;;;14.36;100.00;97795.06;5102531;28;20604;-72
2021/08/04 01:58:55;;;;;;;2.40;2.20;;;;;;;14.37;100.00;97795.88;5102479;28;20229;-73
2021/08/04 02:01:25;;;;;;;2.50;2.37;;;;;;;14.32;100.00;97810.59;5099679;27;20585;-72
2021/08/04 02:03:54;;;;;;;1.90;1.80;;;;;;;14.49;100.00;97797.00;5103123;27;20250;-72
2021/08/04 02:06:27;;;;;;;2.83;2.73;;;;;;;14.44;100.00;97802.09;5100004;28;20490;-71
2021/08/04 02:08:59;;;;;;;2.23;2.07;;;;;;;14.41;100.00;97797.97;5100761;28;20241;-72
2021/08/04 02:11:35;;;;;;;2.40;2.30;;;;;;;14.38;100.00;97797.53;5102563;28;20267;-72
2021/08/04 02:14:06;;;;;;;2.27;2.17;;;;;;;14.35;100.00;97797.91;5101379;28;20205;-72
2021/08/04 02:16:43;;;;;;;2.40;2.20;;;;;;;14.42;100.00;97801.47;5099677;28;20225;-72
2021/08/04 02:19:14;;;;;;;2.20;2.10;;;;;;;14.45;100.00;97806.41;5101020;28;20221;-72
2021/08/04 02:21:44;;;;;;;2.47;2.30;;;;;;;14.44;100.00;97804.78;5102520;28;20209;-73
2021/08/04 02:24:14;;;;;;;2.33;2.23;;;;;;;14.49;100.00;97805.00;5097598;28;20206;-70
2021/08/04 02:26:42;;;;;;;2.40;2.30;;;;;;;14.47;100.00;97797.19;5102052;28;20209;-72
2021/08/04 02:29:11;;;;;;;6.27;2.47;;;;;;;14.39;100.00;97796.50;5099937;28;20201;-71
2021/08/04 02:31:41;;;;;;;2.80;2.33;;;;;;;14.38;100.00;97797.53;5102857;28;20205;-72
2021/08/04 02:34:09;;;;;;;2.30;2.20;;;;;;;14.38;100.00;97793.03;5101683;28;20198;-72
2021/08/04 02:36:37;;;;;;;2.70;2.50;;;;;;;14.35;100.00;97792.56;5102896;28;20206;-72
2021/08/04 02:39:05;;;;;;;2.77;2.50;;;;;;;14.35;100.00;97787.25;5101309;28;20221;-72
2021/08/04 02:41:33;;;;;;;2.23;2.13;;;;;;;14.30;100.00;97787.84;5102051;28;20601;-72
2021/08/04 02:44:02;;;;;;;2.60;2.40;;;;;;;14.28;100.00;97782.69;5102564;28;20216;-73
2021/08/04 02:46:31;;;;;;;2.47;2.37;;;;;;;14.22;100.00;97785.31;5100785;28;20708;-72
2021/08/04 02:49:00;;;;;;;2.33;2.20;;;;;;;14.29;100.00;97779.00;5101042;28;20656;-72
2021/08/04 02:51:28;;;;;;;3.27;3.00;;;;;;;14.21;100.00;97787.16;5099486;28;20205;-72
2021/08/04 02:53:57;;;;;;;2.60;2.40;;;;;;;14.16;100.00;97792.25;5102085;28;20206;-71
2021/08/04 02:56:25;;;;;;;2.77;2.67;;;;;;;14.25;100.00;97791.06;5099814;28;20278;-72
2021/08/04 02:58:53;;;;;;;3.73;2.50;;;;;;;14.23;100.00;97793.13;5100544;28;20233;-72
2021/08/04 03:01:21;;;;;;;2.80;2.70;;;;;;;14.19;100.00;97790.00;5100476;28;20217;-71
2021/08/04 03:03:49;;;;;;;2.87;2.77;;;;;;;14.22;100.00;97796.78;5099924;28;20205;-72
2021/08/04 03:06:19;;;;;;;2.93;2.73;;;;;;;14.22;100.00;97802.13;5101374;28;20201;-73
2021/08/04 03:08:46;;;;;;;2.40;2.30;;;;;;;14.22;100.00;97809.31;5100281;28;20233;-72
2021/08/04 03:11:14;;;;;;;4.17;3.07;;;;;;;14.23;100.00;97811.78;5101838;28;20212;-72
2021/08/04 03:13:42;;;;;;;2.60;2.33;;;;;;;14.22;100.00;97812.78;5101111;28;20616;-72
2021/08/04 03:16:10;;;;;;;2.40;2.30;;;;;;;14.21;100.00;97811.13;5101289;28;20380;-72
2021/08/04 03:18:38;;;;;;;2.80;2.70;;;;;;;14.30;100.00;97811.84;5099159;28;20597;-72
2021/08/04 03:21:06;;;;;;;2.37;2.27;;;;;;;14.24;100.00;97810.75;5101667;27;20447;-71
2021/08/04 03:23:36;;;;;;;2.80;2.60;;;;;;;14.23;100.00;97810.97;5101071;28;20293;-72
2021/08/04 03:26:04;;;;;;;3.40;3.10;;;;;;;14.28;100.00;97820.00;5097981;28;20193;-72
2021/08/04 03:28:31;;;;;;;2.37;2.17;;;;;;;14.32;100.00;97812.47;5099597;28;20225;-72
2021/08/04 03:31:00;;;;;;;4.80;3.30;;;;;;;14.32;100.00;97812.47;5098643;28;20217;-72
2021/08/04 03:33:28;;;;;;;2.90;2.80;;;;;;;14.29;100.00;97810.19;5100319;28;20225;-72
2021/08/04 03:35:56;;;;;;;2.50;2.40;;;;;;;14.28;100.00;97797.88;5098950;28;20213;-72
2021/08/04 03:38:23;;;;;;;2.57;2.47;;;;;;;14.22;100.00;97804.78;5098529;28;20218;-72
2021/08/04 03:40:53;;;;;;;3.20;3.00;;;;;;;14.24;100.00;97807.28;5098704;28;21034;-72
2021/08/04 03:43:21;;;;;;;2.77;2.57;;;;;;;14.23;100.00;97802.97;5100712;28;20736;-71
2021/08/04 03:45:49;;;;;;;3.13;2.83;;;;;;;14.23;100.00;97810.97;5100125;28;20201;-72
2021/08/04 03:48:17;;;;;;;3.83;3.17;;;;;;;14.28;100.00;97805.88;5099614;28;20221;-72
2021/08/04 03:50:45;;;;;;;2.73;2.53;;;;;;;14.22;100.00;97809.31;5100200;28;20337;-72
2021/08/04 03:53:13;;;;;;;2.93;2.73;;;;;;;14.25;100.00;97814.25;5101004;28;20566;-72
2021/08/04 03:55:41;;;;;;;2.60;2.50;;;;;;;14.18;100.00;97809.66;5099332;28;20210;-73
2021/08/04 03:58:10;;;;;;;3.17;2.97;;;;;;;14.24;100.00;97808.09;5103733;27;20279;-69
2021/08/04 04:00:38;;;;;;;3.07;2.87;;;;;;;14.18;100.00;97812.34;5099119;28;20716;-69
2021/08/04 04:03:06;;;;;;;3.43;3.23;;;;;;;14.29;100.00;97811.00;5104976;27;20204;-68
2021/08/04 04:05:34;;;;;;;3.17;2.97;;;;;;;14.31;100.00;97816.16;5105038;27;20209;-68
2021/08/04 04:08:03;;;;;;;3.63;2.53;;;;;;;14.43;100.00;97822.59;5100712;28;20217;-68
2021/08/04 04:10:31;;;;;;;2.87;2.67;;;;;;;14.33;100.00;97814.91;5099581;28;20209;-68
2021/08/04 04:12:59;;;;;;;2.83;2.73;;;;;;;14.43;100.00;97825.25;5100113;28;20217;-68
2021/08/04 04:15:29;;;;;;;2.90;2.70;;;;;;;14.38;100.00;97819.69;5100540;28;20205;-67
2021/08/04 04:17:57;;;;;;;3.33;3.07;;;;;;;14.37;100.00;97819.88;5099797;28;20221;-69
2021/08/04 04:20:25;;;;;;;3.13;2.80;;;;;;;14.37;100.00;97818.03;5099597;28;20274;-69
2021/08/04 04:22:53;;;;;;;3.53;3.30;;;;;;;14.39;100.00;97817.81;5097114;28;20708;-66
2021/08/04 04:25:21;;;;;;;2.40;2.30;;;;;;;14.41;100.00;97816.63;5099945;28;20205;-67
2021/08/04 04:27:49;;;;;;;2.93;2.83;;;;;;;14.47;100.00;97813.19;5096669;28;20233;-68
2021/08/04 04:30:17;;;;;;;3.07;2.80;;;;;;;14.43;100.00;97813.78;5100432;28;20858;-68
2021/08/04 04:32:46;;;;;;;3.20;2.90;;;;;;;14.45;100.00;97806.41;5101105;28;20225;-68
2021/08/04 04:35:14;;;;;;;2.93;2.73;;;;;;;14.43;100.00;97817.25;5097437;28;20685;-69
2021/08/04 04:37:42;;;;;;;3.63;2.83;;;;;;;14.56;100.00;97821.03;5098673;28;20323;-68
2021/08/04 04:40:10;;;;;;;2.97;2.83;;;;;;;14.64;100.00;97815.59;5100190;28;20542;-68
2021/08/04 04:42:38;;;;;;;2.90;2.70;;;;;;;14.59;100.00;97818.00;5099717;28;20205;-68
2021/08/04 04:45:08;;;;;;;4.10;2.80;;;;;;;14.55;100.00;97820.22;5099911;28;20569;-69
2021/08/04 04:47:36;;;;;;;3.73;2.50;;;;;;;14.58;100.00;97827.84;5098651;27;20696;-69
2021/08/04 04:50:06;;;;;;;3.37;3.07;;;;;;;14.56;100.00;97818.38;5101724;27;20981;-68
2021/08/04 04:52:41;;;;;;;3.20;3.00;;;;;;;14.59;100.00;97821.50;5102686;28;20662;-68
2021/08/04 04:55:10;;;;;;;3.17;2.90;;;;;;;14.59;100.00;97826.00;5102906;28;20201;-69
2021/08/04 04:57:38;;;;;;;3.10;2.90;;;;;;;14.63;100.00;97829.94;5104653;28;20228;-68
2021/08/04 05:00:08;;;;;;;2.90;2.53;;;;;;;14.69;100.00;97837.16;5104446;28;20367;-68
2021/08/04 05:02:37;;;;;;;3.30;3.00;;;;;;;14.64;100.00;97838.75;5104289;28;20716;-69
2021/08/04 05:05:09;;;;;;;2.93;2.80;;;;;;;14.67;100.00;97836.53;5101202;28;20209;-68
2021/08/04 05:07:37;;;;;;;2.83;2.63;;;;;;;14.65;100.00;97846.56;5100650;27;20233;-69
2021/08/04 05:10:06;;;;;;;5.37;2.80;;;;;;;14.65;100.00;97849.22;5101840;28;20200;-69
2021/08/04 05:12:34;;;;;;;2.90;2.80;;;;;;;14.70;100.00;97843.28;5103006;28;20206;-69
2021/08/04 05:15:03;;;;;;;3.47;2.23;;;;;;;14.77;100.00;97838.84;5103929;27;20727;-68
2021/08/04 05:17:31;;;;;;;2.90;2.63;;;;;;;14.94;100.00;97831.38;5108978;27;20225;-70
2021/08/04 05:19:58;;;;;;;4.00;2.23;;;;;;;14.98;100.00;97838.00;5105437;27;20240;-69
2021/08/04 05:22:28;;;;;;;2.47;2.37;;;;;;;14.92;100.00;97849.44;5103922;27;20824;-72
2021/08/04 05:24:56;;;;;;;2.30;2.20;;;;;;;14.95;100.00;97849.03;5103352;28;20198;-73
2021/08/04 05:27:24;;;;;;;2.60;2.47;;;;;;;15.02;100.00;97841.06;5101539;28;20596;-73
2021/08/04 05:29:52;;;;;;;3.23;3.03;;;;;;;15.11;100.00;97845.22;5102092;28;20760;-74
2021/08/04 05:32:20;;;;;;;4.57;2.27;;;;;;;15.30;100.00;97848.22;5101244;28;20214;-71
2021/08/04 05:34:48;;;;;;;5.37;3.03;;;;;;;15.03;100.00;97846.22;5101208;28;20674;-73
2021/08/04 05:37:19;;;;;;;2.73;2.53;;;;;;;15.08;100.00;97844.81;5103146;28;20225;-74
2021/08/04 05:39:48;;;;;;;2.63;2.53;;;;;;;15.16;100.00;97847.31;5102323;28;20509;-72
2021/08/04 05:42:16;;;;;;;2.33;2.23;;;;;;;15.23;100.00;97844.69;5102169;28;20673;-74
2021/08/04 05:44:44;;;;;;;3.10;2.80;;;;;;;15.19;100.00;97850.44;5103081;28;20210;-71
2021/08/04 05:47:16;;;;;;;2.63;2.30;;;;;;;15.11;100.00;97849.75;5101505;28;20222;-72
2021/08/04 05:49:44;;;;;;;2.77;2.50;;;;;;;15.22;100.00;97846.53;5103724;28;20286;-73
2021/08/04 05:52:12;;;;;;;2.73;2.50;;;;;;;15.33;100.00;97843.28;5103370;28;20479;-71
2021/08/04 05:54:40;;;;;;;2.93;2.53;;;;;;;15.42;100.00;97841.28;5102595;28;20600;-70
2021/08/04 05:57:10;;;;;;;3.03;2.70;;;;;;;15.43;100.00;97847.44;5102728;27;20306;-72
2021/08/04 05:59:38;;;;;;;3.10;2.90;;;;;;;15.67;100.00;97848.78;5100068;28;20256;-72
2021/08/04 06:02:06;;;;;;;2.60;2.40;;;;;;;15.53;100.00;97847.06;5103369;28;20659;-71
2021/08/04 06:04:34;;;;;;;2.57;2.10;;;;;;;15.43;100.00;97840.25;5101196;28;20212;-72
2021/08/04 06:07:02;;;;;;;3.13;2.43;;;;;;;15.68;100.00;97853.09;5099210;28;20294;-72
2021/08/04 06:09:30;;;;;;;2.43;2.30;;;;;;;15.80;100.00;97848.00;5102235;27;20502;-71
2021/08/04 06:11:59;;;;;;;2.80;2.60;;;;;;;15.73;100.00;97855.19;5098583;28;20205;-72
2021/08/04 06:14:28;;;;;;;4.43;2.83;;;;;;;15.76;100.00;97852.91;5100493;27;20198;-72
2021/08/04 06:16:56;;;;;;;2.80;2.60;;;;;;;15.88;100.00;97850.50;5101384;27;20231;-70
2021/08/04 06:19:24;;;;;;;2.80;2.60;;;;;;;16.03;99.38;97852.19;5098894;28;20577;-72
2021/08/04 06:21:52;;;;;;;2.47;2.30;;;;;;;16.23;96.71;97846.06;5099898;27;20221;-72
2021/08/04 06:24:20;;;;;;;2.80;2.70;;;;;;;16.19;96.34;97857.16;5097449;28;20206;-70
2021/08/04 06:26:48;;;;;;;2.50;2.30;;;;;;;16.13;97.39;97860.66;5101565;28;20750;-74
2021/08/04 06:29:16;;;;;;;2.67;2.50;;;;;;;16.46;96.44;97859.81;5102062;28;20737;-73
2021/08/04 06:31:45;;;;;;;3.00;2.80;;;;;;;16.47;96.95;97858.81;5102481;28;20495;-72
2021/08/04 06:34:13;;;;;;;2.70;2.60;;;;;;;16.52;95.16;97863.53;5100592;27;20320;-71
2021/08/04 06:36:41;;;;;;;3.03;2.70;;;;;;;16.41;95.58;97870.31;5101978;28;20205;-72
2021/08/04 06:39:09;;;;;;;3.73;2.83;;;;;;;16.43;94.25;97856.75;5101949;28;20217;-71
2021/08/04 06:41:37;;;;;;;3.00;2.63;;;;;;;16.41;93.93;97864.97;5102040;28;20723;-71
2021/08/04 06:44:05;;;;;;;2.30;2.10;;;;;;;16.46;93.72;97867.03;5100993;28;20209;-71
2021/08/04 06:46:34;;;;;;;2.57;2.47;;;;;;;16.57;93.65;97858.41;5101427;28;20250;-73
2021/08/04 06:49:05;;;;;;;2.70;2.50;;;;;;;16.45;91.68;97866.22;5099341;27;20272;-74
2021/08/04 06:51:34;;;;;;;2.33;2.23;;;;;;;16.55;90.60;97856.97;5100716;27;20210;-72
2021/08/04 06:54:02;;;;;;;2.50;2.40;;;;;;;16.76;89.76;97859.41;5101760;28;20201;-71
2021/08/04 06:56:30;;;;;;;2.53;2.40;;;;;;;17.04;86.62;97853.03;5099641;28;20648;-72
2021/08/04 06:58:58;;;;;;;2.90;2.70;;;;;;;17.07;86.90;97847.25;5101615;28;20721;-72
2021/08/04 07:01:26;;;;;;;2.60;2.40;;;;;;;16.87;89.31;97847.25;5100482;28;20277;-73
2021/08/04 07:03:54;;;;;;;2.97;2.43;;;;;;;17.02;87.29;97851.56;5106638;27;20584;-70
2021/08/04 07:06:23;;;;;;;4.57;2.80;;;;;;;17.35;85.60;97854.19;5097480;27;20230;-70
2021/08/04 07:08:51;;;;;;;3.60;2.47;;;;;;;17.29;84.12;97852.34;5101870;27;20760;-73
2021/08/04 07:11:22;;;;;;;2.27;2.17;;;;;;;17.27;85.71;97846.38;5099340;27;20198;-74
2021/08/04 07:13:50;;;;;;;2.90;2.70;;;;;;;17.41;84.12;97857.84;5100390;27;20210;-72
2021/08/04 07:16:18;;;;;;;4.63;2.90;;;;;;;17.40;82.14;97852.72;5096456;27;20197;-70
2021/08/04 07:18:46;;;;;;;1.97;1.80;;;;;;;17.21;83.62;97852.56;5099552;27;20228;-72
2021/08/04 07:21:14;;;;;;;2.33;2.20;;;;;;;17.52;81.52;97853.69;5099452;28;20222;-71
2021/08/04 07:23:46;;;;;;;3.53;2.43;;;;;;;17.13;82.96;97856.31;5098703;28;20194;-72
2021/08/04 07:26:14;;;;;;;2.50;2.40;;;;;;;17.09;83.88;97841.72;5098814;28;20201;-73
2021/08/04 07:28:43;;;;;;;2.27;2.17;;;;;;;17.20;84.57;97846.41;5100294;27;20232;-73
2021/08/04 07:31:11;;;;;;;2.20;2.10;;;;;;;17.28;83.24;97847.19;5103621;27;20207;-72
2021/08/04 07:33:41;;;;;;;2.30;2.20;;;;;;;17.29;84.87;97844.31;5101420;28;20278;-72
2021/08/04 07:36:09;;;;;;;2.40;2.30;;;;;;;17.18;82.77;97839.59;5103310;27;20284;-71
2021/08/04 07:38:37;;;;;;;2.73;2.10;;;;;;;17.49;81.28;97843.41;5094547;28;20396;-74
2021/08/04 07:41:06;;;;;;;2.50;2.30;;;;;;;17.34;82.41;97851.69;5094684;28;20202;-72
2021/08/04 07:43:34;;;;;;;2.80;2.47;;;;;;;17.81;80.27;97848.03;5099088;27;20206;-73
2021/08/04 07:46:02;;;;;;;2.60;2.50;;;;;;;18.02;80.22;97855.75;5097819;28;20221;-74
2021/08/04 07:48:30;;;;;;;2.40;2.30;;;;;;;18.23;78.49;97861.81;5098643;28;20278;-71
2021/08/04 07:53:50;;;;;;;2.87;2.40;;;;;;;18.27;75.50;97859.50;5091615;28;20728;-75
2021/08/04 07:56:22;;;;;;;3.23;2.30;;;;;;;18.81;72.55;97851.84;5095987;28;20585;-75
2021/08/04 07:58:51;;;;;;;2.27;2.17;;;;;;;18.57;71.55;97848.16;5093561;28;20233;-73
2021/08/04 08:01:19;;;;;;;4.07;2.27;;;;;;;18.75;71.04;97844.69;5089422;28;20297;-74
2021/08/04 08:03:47;;;;;;;2.70;2.50;;;;;;;18.36;74.57;97858.19;5090368;28;20198;-76
2021/08/04 08:06:15;;;;;;;2.47;2.30;;;;;;;18.18;74.23;97857.09;5093027;28;20212;-75
2021/08/04 08:08:43;;;;;;;2.57;2.10;;;;;;;18.30;73.99;97853.72;5094867;28;20225;-76
2021/08/04 08:11:11;;;;;;;2.73;2.30;;;;;;;18.25;75.08;97859.75;5089605;27;20202;-75
2021/08/04 08:13:40;;;;;;;3.57;2.70;;;;;;;18.14;73.15;97853.22;5098763;27;20205;-73
2021/08/04 08:16:08;;;;;;;2.53;2.43;;;;;;;17.87;75.57;97852.53;5098948;28;20205;-75
2021/08/04 08:18:36;;;;;;;2.20;2.10;;;;;;;17.55;76.26;97857.81;5102493;28;20240;-73
2021/08/04 08:21:04;;;;;;;2.70;2.53;;;;;;;17.65;76.59;97856.34;5099068;28;20201;-73
2021/08/04 08:23:32;;;;;;;3.27;2.60;;;;;;;17.76;75.52;97864.75;5098930;28;20518;-75
2021/08/04 08:26:00;;;;;;;3.10;2.77;;;;;;;17.93;73.72;97859.69;5091232;28;20197;-73
2021/08/04 08:28:28;;;;;;;2.63;2.43;;;;;;;18.02;73.13;97846.91;5092257;28;20218;-76
2021/08/04 08:30:57;;;;;;;2.30;2.17;;;;;;;17.98;74.45;97856.34;5094735;28;20240;-74
2021/08/04 08:33:25;;;;;;;2.83;2.73;;;;;;;17.98;74.25;97867.91;5097891;28;20202;-75
2021/08/04 08:35:53;;;;;;;2.90;2.70;;;;;;;18.09;73.20;97855.72;5098983;28;20201;-74
2021/08/04 08:38:21;;;;;;;2.57;2.27;;;;;;;17.99;73.35;97852.63;5099688;28;20313;-73
2021/08/04 08:40:49;;;;;;;2.10;2.00;;;;;;;18.19;73.26;97850.69;5099232;28;20206;-72
2021/08/04 08:43:17;;;;;;;2.63;2.43;;;;;;;18.21;71.62;97855.84;5098446;28;20221;-75
2021/08/04 08:45:48;;;;;;;2.73;2.23;;;;;;;18.23;71.17;97849.22;5099542;28;20205;-73
2021/08/04 08:48:18;;;;;;;2.43;2.33;;;;;;;18.30;72.02;97851.88;5097680;28;20228;-74
2021/08/04 08:50:49;;;;;;;2.13;2.03;;;;;;;18.29;71.60;97849.38;5100503;28;20210;-75
2021/08/04 08:53:17;;;;;;;2.63;2.40;;;;;;;18.64;68.77;97844.38;5100508;28;20204;-76
2021/08/04 08:55:46;;;;;;;2.10;2.00;;;;;;;18.69;69.23;97843.69;5098352;28;20206;-76
2021/08/04 08:58:14;;;;;;;2.20;2.10;;;;;;;18.52;70.71;97854.16;5113952;28;20229;-76
2021/08/04 09:00:42;;;;;;;2.57;2.33;;;;;;;18.33;71.91;97853.28;5100346;28;20597;-76
2021/08/04 09:03:10;;;;;;;2.80;2.60;;;;;;;18.56;70.03;97844.66;5101708;28;20224;-75
2021/08/04 09:05:50;;;;;;;3.93;2.50;;;;;;;17.96;71.42;97840.50;5096385;28;20271;-74
2021/08/04 09:08:25;;;;;;;3.33;2.60;;;;;;;17.98;72.56;97845.63;5098357;28;20229;-74
2021/08/04 09:10:53;;;;;;;2.17;2.07;;;;;;;17.93;72.79;97847.09;5099717;28;20204;-76
2021/08/04 09:13:31;;;;;;;3.43;2.60;;;;;;;17.96;72.57;97837.00;5095789;28;20202;-74
2021/08/04 09:16:04;;;;;;;2.23;2.13;;;;;;;18.06;72.13;97834.72;5097473;28;20197;-76
2021/08/04 09:18:42;;;;;;;3.17;2.63;;;;;;;17.98;72.82;97835.75;5099607;28;20233;-76
2021/08/04 09:21:12;;;;;;;2.90;2.40;;;;;;;18.26;72.53;97826.53;5098787;28;20575;-74
2021/08/04 09:23:45;;;;;;;3.17;2.70;;;;;;;18.27;73.04;97825.47;5097115;28;20230;-73
2021/08/04 09:26:14;;;;;;;2.27;2.17;;;;;;;17.97;73.21;97830.59;5087186;28;20210;-76
2021/08/04 09:28:56;;;;;;;2.83;2.63;;;;;;;18.13;73.37;97832.78;5099681;28;20470;-76
2021/08/04 09:31:44;;;;;;;2.87;2.67;;;;;;;18.25;74.19;97834.78;5097028;28;20201;-74
2021/08/04 09:34:34;;;;;;;2.43;2.27;;;;;;;18.15;74.08;97837.94;5085810;28;20286;-72
2021/08/04 09:37:07;;;;;;;2.43;2.30;;;;;;;18.29;73.94;97839.50;5089596;28;20576;-76
2021/08/04 09:39:35;;;;;;;2.93;2.53;;;;;;;18.23;72.24;97829.66;5100064;28;20213;-74
2021/08/04 09:42:04;;;;;;;2.87;2.67;;;;;;;17.93;73.44;97832.91;5103060;28;20569;-74
2021/08/04 09:44:32;;;;;;;3.37;2.63;;;;;;;17.87;75.84;97828.41;5087594;28;20324;-73
2021/08/04 09:47:08;;;;;;;2.37;2.17;;;;;;;17.81;76.84;97831.94;5094674;28;20224;-71
2021/08/04 09:49:36;;;;;;;3.10;2.80;;;;;;;17.81;77.69;97834.63;5102304;27;20210;-74
2021/08/04 09:52:07;;;;;;;3.03;2.80;;;;;;;17.55;77.62;97831.84;5100745;27;20236;-74
2021/08/04 09:54:39;;;;;;;2.80;2.60;;;;;;;17.62;76.76;97832.66;5102227;28;20220;-75
2021/08/04 09:57:08;;;;;;;2.30;2.20;;;;;;;17.60;78.27;97831.22;5099571;27;20229;-77
2021/08/04 09:59:36;;;;;;;2.33;2.03;;;;;;;17.38;78.90;97830.69;5104742;27;20691;-74
2021/08/04 10:02:05;;;;;;;2.20;2.10;;;;;;;17.56;79.40;97830.81;5101337;27;20202;-75
2021/08/04 10:04:34;;;;;;;2.53;2.40;;;;;;;17.52;80.14;97839.50;5094370;27;20206;-74
2021/08/04 10:07:08;;;;;;;2.37;2.17;;;;;;;17.33;80.68;97829.47;5102470;27;20649;-76
2021/08/04 10:09:37;;;;;;;2.43;2.20;;;;;;;17.27;83.52;97833.00;5101483;28;20381;-73
2021/08/04 10:12:07;;;;;;;3.13;2.63;;;;;;;17.22;85.86;97835.47;5094947;28;20208;-72
2021/08/04 10:14:36;;;;;;;2.70;2.60;;;;;;;17.22;83.66;97838.13;5102144;27;20190;-73
2021/08/04 10:17:05;;;;;;;2.10;2.00;;;;;;;17.32;82.15;97835.88;5095243;28;20315;-75
2021/08/04 10:19:35;;;;;;;2.53;2.33;;;;;;;17.45;82.05;97834.16;5102160;28;20236;-72
2021/08/04 10:22:03;;;;;;;2.80;2.60;;;;;;;17.83;80.27;97833.34;5111532;27;20293;-74
2021/08/04 10:24:33;;;;;;;2.70;2.53;;;;;;;18.05;78.91;97823.16;5111598;27;20247;-75
2021/08/04 10:27:02;;;;;;;2.60;2.40;;;;;;;18.56;77.14;97825.88;5098421;28;20228;-73
2021/08/04 10:29:30;;;;;;;3.13;2.83;;;;;;;18.48;77.94;97826.97;5094326;28;20206;-74
2021/08/04 10:31:57;;;;;;;2.40;2.20;;;;;;;18.36;79.10;97821.47;5102153;27;20554;-76
2021/08/04 10:34:27;;;;;;;3.03;2.83;;;;;;;18.58;77.14;97815.75;5097623;28;20202;-76
2021/08/04 10:36:56;;;;;;;3.43;2.57;;;;;;;18.84;73.24;97813.03;5097872;28;20226;-75
2021/08/04 10:39:25;;;;;;;2.33;2.23;;;;;;;19.16;70.73;97816.41;5098597;27;20205;-74
2021/08/04 10:42:04;;;;;;;2.77;2.67;;;;;;;19.37;69.56;97817.81;5098556;28;20203;-75
2021/08/04 10:44:32;;;;;;;2.30;2.20;;;;;;;19.56;69.07;97814.28;5094947;28;20231;-75
2021/08/04 10:47:02;;;;;;;3.07;2.80;;;;;;;19.84;69.10;97805.63;5094146;28;20259;-76
2021/08/04 10:49:32;;;;;;;3.73;2.73;;;;;;;19.89;68.12;97800.41;5101234;27;20892;-75
2021/08/04 10:52:09;;;;;;;2.70;2.50;;;;;;;20.14;67.28;97798.63;5093729;28;20630;-73
2021/08/04 10:54:38;;;;;;;3.00;2.60;;;;;;;20.35;63.22;97802.63;5100458;28;20205;-75
2021/08/04 10:57:09;;;;;;;2.60;2.50;;;;;;;20.64;60.89;97800.06;5096569;27;20222;-75
2021/08/04 10:59:42;;;;;;;2.97;2.77;;;;;;;20.27;62.74;97801.09;5095641;27;20313;-74
2021/08/04 11:02:30;;;;;;;3.40;3.17;;;;;;;20.64;60.63;97800.88;5096827;27;20213;-75
2021/08/04 11:04:59;;;;;;;3.33;2.70;;;;;;;21.02;61.07;97795.28;5104619;27;20225;-75
2021/08/04 11:07:27;;;;;;;2.73;2.53;;;;;;;20.94;58.38;97808.06;5100077;28;20371;-74
2021/08/04 11:10:06;;;;;;;2.60;2.50;;;;;;;20.52;61.26;97808.97;5101319;28;20197;-74
2021/08/04 11:12:56;;;;;;;2.70;2.50;;;;;;;21.25;58.00;97783.63;5101196;28;20216;-73
2021/08/04 11:15:28;;;;;;;2.50;2.30;;;;;;;20.68;62.27;97785.09;5094200;28;20431;-74
2021/08/04 11:18:08;;;;;;;2.83;2.60;;;;;;;20.67;63.55;97778.88;5100924;27;20227;-73
2021/08/04 11:20:38;;;;;;;2.77;2.67;;;;;;;20.95;61.18;97773.84;5099296;27;20206;-70
2021/08/04 11:23:09;;;;;;;2.50;2.30;;;;;;;20.87;62.01;97772.34;5102093;28;20202;-70
2021/08/04 11:25:41;;;;;;;2.40;2.30;;;;;;;21.35;59.33;97766.84;5097971;27;20204;-70
2021/08/04 11:28:15;;;;;;;2.40;2.20;;;;;;;21.41;58.03;97765.88;5099300;28;20229;-68
2021/08/04 11:30:46;;;;;;;2.67;2.47;;;;;;;21.28;58.60;97760.78;5095963;28;20292;-68
2021/08/04 11:33:33;;;;;;;2.27;2.17;;;;;;;21.41;55.79;97763.19;5100064;28;20197;-69
2021/08/04 11:36:10;;;;;;;2.20;2.10;;;;;;;21.29;58.73;97762.41;5093721;28;20213;-70
2021/08/04 11:38:47;;;;;;;2.43;2.20;;;;;;;21.46;55.03;97757.09;5099973;28;20576;-68
2021/08/04 11:41:24;;;;;;;2.30;2.20;;;;;;;21.78;53.84;97761.97;5103507;27;20197;-70
2021/08/04 11:43:59;;;;;;;6.63;2.20;;;;;;;21.33;57.83;97756.28;5099128;28;20232;-70